createdAt,value
2018-01-17T00:00:36.335Z,7.6
2018-01-17T00:01:38.746Z,7.7
2018-01-17T00:02:41.456Z,7.7
2018-01-17T00:03:43.874Z,7.7
2018-01-17T00:04:46.280Z,7.7
2018-01-17T00:05:48.692Z,7.6
2018-01-17T00:06:51.103Z,7.6
2018-01-17T00:07:53.504Z,7.6
2018-01-17T00:08:56.192Z,7.6
2018-01-17T00:09:58.595Z,7.6
2018-01-17T00:11:01.001Z,7.6
2018-01-17T00:12:03.689Z,7.6
2018-01-17T00:13:06.104Z,7.6
2018-01-17T00:14:08.521Z,7.6
2018-01-17T00:15:10.919Z,7.6
2018-01-17T00:16:13.328Z,7.6
2018-01-17T00:17:15.745Z,7.6
2018-01-17T00:18:18.147Z,7.6
2018-01-17T00:19:20.554Z,7.6
2018-01-17T00:20:22.963Z,7.6
2018-01-17T00:21:25.371Z,7.6
2018-01-17T00:22:28.352Z,7.6
2018-01-17T00:23:30.761Z,7.6
2018-01-17T00:24:33.163Z,7.6
2018-01-17T00:25:35.574Z,7.6
2018-01-17T00:26:37.988Z,7.6
2018-01-17T00:27:40.389Z,7.6
2018-01-17T00:28:42.802Z,7.5
2018-01-17T00:29:45.787Z,7.6
2018-01-17T00:30:48.470Z,7.5
2018-01-17T00:31:50.892Z,7.5
2018-01-17T00:32:53.296Z,7.5
2018-01-17T00:33:55.704Z,7.5
2018-01-17T00:34:58.108Z,7.6
2018-01-17T00:36:00.507Z,7.6
2018-01-17T00:37:02.929Z,7.6
2018-01-17T00:38:05.337Z,7.6
2018-01-17T00:39:07.760Z,7.6
2018-01-17T00:40:10.189Z,7.7
2018-01-17T00:41:12.607Z,7.7
2018-01-17T00:42:15.013Z,7.7
2018-01-17T00:43:17.431Z,7.7
2018-01-17T00:44:19.832Z,7.7
2018-01-17T00:45:22.522Z,7.8
2018-01-17T00:46:24.923Z,7.8
2018-01-17T00:47:27.343Z,7.8
2018-01-17T00:48:30.031Z,7.8
2018-01-17T00:49:32.722Z,7.8
2018-01-17T00:50:35.129Z,7.8
2018-01-17T00:51:37.536Z,7.7
2018-01-17T00:52:39.950Z,7.7
2018-01-17T00:53:42.359Z,7.7
2018-01-17T00:54:44.762Z,7.7
2018-01-17T00:55:47.182Z,7.7
2018-01-17T00:56:49.589Z,7.7
2018-01-17T00:57:51.991Z,7.7
2018-01-17T00:58:54.408Z,7.7
2018-01-17T00:59:56.808Z,7.6
2018-01-17T01:00:59.211Z,7.6
2018-01-17T01:02:01.624Z,7.6
2018-01-17T01:03:04.305Z,7.6
2018-01-17T01:04:06.709Z,7.6
2018-01-17T01:05:09.126Z,7.6
2018-01-17T01:06:11.523Z,7.6
2018-01-17T01:07:13.942Z,7.6
2018-01-17T01:08:16.349Z,7.6
2018-01-17T01:09:18.753Z,7.6
2018-01-17T01:10:21.443Z,7.6
2018-01-17T01:11:23.850Z,7.6
2018-01-17T01:12:26.252Z,7.6
2018-01-17T01:13:28.663Z,7.6
2018-01-17T01:14:31.347Z,7.7
2018-01-17T01:15:33.750Z,7.7
2018-01-17T01:16:36.152Z,7.7
2018-01-17T01:17:38.570Z,7.7
2018-01-17T01:18:40.974Z,7.7
2018-01-17T01:19:43.384Z,7.7
2018-01-17T01:20:45.792Z,7.7
2018-01-17T01:21:48.484Z,7.7
2018-01-17T01:22:50.892Z,7.7
2018-01-17T01:23:53.299Z,7.6
2018-01-17T01:24:55.704Z,7.7
2018-01-17T01:25:58.111Z,7.6
2018-01-17T01:27:00.529Z,7.6
2018-01-17T01:28:02.927Z,7.6
2018-01-17T01:29:05.334Z,7.6
2018-01-17T01:30:07.746Z,7.6
2018-01-17T01:31:10.142Z,7.6
2018-01-17T01:32:12.553Z,7.6
2018-01-17T01:33:14.972Z,7.6
2018-01-17T01:34:17.663Z,7.6
2018-01-17T01:35:20.071Z,7.6
2018-01-17T01:36:22.483Z,7.6
2018-01-17T01:37:24.886Z,7.6
2018-01-17T01:38:27.305Z,7.6
2018-01-17T01:39:29.986Z,7.6
2018-01-17T01:40:32.384Z,7.6
2018-01-17T01:41:35.078Z,7.6
2018-01-17T01:42:37.485Z,7.6
2018-01-17T01:43:39.880Z,7.6
2018-01-17T01:44:42.290Z,7.6
2018-01-17T01:45:44.705Z,7.6
2018-01-17T01:46:47.105Z,7.7
2018-01-17T01:47:49.509Z,7.7
2018-01-17T01:48:51.918Z,7.7
2018-01-17T01:49:54.619Z,7.7
2018-01-17T01:50:57.029Z,7.8
2018-01-17T01:51:59.435Z,7.8
2018-01-17T01:53:02.108Z,7.8
2018-01-17T01:54:04.523Z,7.8
2018-01-17T01:55:06.943Z,7.8
2018-01-17T01:56:09.352Z,7.9
2018-01-17T01:57:11.765Z,7.9
2018-01-17T01:58:14.169Z,7.9
2018-01-17T01:59:16.579Z,7.8
2018-01-17T02:00:18.981Z,7.8
2018-01-17T02:01:21.388Z,7.8
2018-01-17T02:02:24.085Z,7.8
2018-01-17T02:03:26.786Z,7.8
2018-01-17T02:04:29.201Z,7.8
2018-01-17T02:05:31.609Z,7.8
2018-01-17T02:06:34.021Z,7.8
2018-01-17T02:07:36.422Z,7.8
2018-01-17T02:08:38.832Z,7.8
2018-01-17T02:09:41.247Z,7.7
2018-01-17T02:10:43.651Z,7.8
2018-01-17T02:11:46.061Z,7.8
2018-01-17T02:12:48.754Z,7.8
2018-01-17T02:13:51.163Z,7.8
2018-01-17T02:14:53.570Z,7.8
2018-01-17T02:15:55.982Z,7.8
2018-01-17T02:16:58.681Z,7.8
2018-01-17T02:18:01.096Z,7.8
2018-01-17T02:19:03.496Z,7.8
2018-01-17T02:20:05.916Z,7.9
2018-01-17T02:21:08.601Z,7.9
2018-01-17T02:22:11.007Z,7.9
2018-01-17T02:23:13.408Z,7.9
2018-01-17T02:24:15.820Z,7.9
2018-01-17T02:25:18.221Z,7.9
2018-01-17T02:26:20.648Z,7.9
2018-01-17T02:27:23.048Z,7.9
2018-01-17T02:28:25.465Z,7.9
2018-01-17T02:29:28.158Z,7.9
2018-01-17T02:30:30.559Z,7.8
2018-01-17T02:31:32.975Z,7.9
2018-01-17T02:32:35.382Z,7.8
2018-01-17T02:33:37.798Z,7.8
2018-01-17T02:34:40.214Z,7.9
2018-01-17T02:35:42.892Z,7.9
2018-01-17T02:36:45.306Z,7.9
2018-01-17T02:37:47.719Z,7.9
2018-01-17T02:38:50.406Z,8
2018-01-17T02:39:52.809Z,8
2018-01-17T02:40:55.221Z,8
2018-01-17T02:41:57.633Z,7.9
2018-01-17T02:43:00.050Z,7.9
2018-01-17T02:44:02.462Z,7.9
2018-01-17T02:45:04.864Z,7.9
2018-01-17T02:46:07.274Z,7.9
2018-01-17T02:47:09.686Z,7.9
2018-01-17T02:48:12.096Z,7.9
2018-01-17T02:49:14.509Z,7.9
2018-01-17T02:50:16.915Z,7.9
2018-01-17T02:51:19.319Z,7.9
2018-01-17T02:52:21.734Z,7.8
2018-01-17T02:53:24.144Z,7.8
2018-01-17T02:54:26.543Z,7.8
2018-01-17T02:55:28.953Z,7.8
2018-01-17T02:56:31.369Z,7.8
2018-01-17T02:57:34.068Z,7.8
2018-01-17T02:58:36.757Z,7.8
2018-01-17T02:59:39.446Z,7.8
2018-01-17T03:00:41.856Z,7.8
2018-01-17T03:01:44.276Z,7.8
2018-01-17T03:02:46.682Z,7.8
2018-01-17T03:03:49.078Z,7.8
2018-01-17T03:04:51.486Z,7.8
2018-01-17T03:05:53.897Z,7.8
2018-01-17T03:06:56.311Z,7.9
2018-01-17T03:07:59.003Z,7.9
2018-01-17T03:09:01.400Z,7.9
2018-01-17T03:10:03.820Z,8
2018-01-17T03:11:06.239Z,8
2018-01-17T03:12:08.641Z,8
2018-01-17T03:13:11.057Z,8
2018-01-17T03:14:13.460Z,8
2018-01-17T03:15:15.875Z,8
2018-01-17T03:16:18.549Z,8
2018-01-17T03:17:20.959Z,8
2018-01-17T03:18:23.379Z,8
2018-01-17T03:19:25.835Z,8
2018-01-17T03:20:28.246Z,8
2018-01-17T03:21:30.948Z,8
2018-01-17T03:22:33.358Z,8
2018-01-17T03:23:35.773Z,8
2018-01-17T03:24:38.188Z,7.9
2018-01-17T03:25:40.582Z,7.9
2018-01-17T03:26:42.995Z,7.9
2018-01-17T03:27:45.394Z,7.9
2018-01-17T03:28:47.806Z,7.9
2018-01-17T03:29:50.220Z,7.9
2018-01-17T03:30:52.624Z,7.9
2018-01-17T03:31:55.034Z,7.9
2018-01-17T03:32:57.444Z,7.9
2018-01-17T03:33:59.845Z,7.9
2018-01-17T03:35:02.558Z,7.9
2018-01-17T03:36:04.959Z,7.9
2018-01-17T03:37:07.368Z,7.9
2018-01-17T03:38:09.768Z,7.8
2018-01-17T03:39:12.177Z,7.9
2018-01-17T03:40:14.583Z,7.9
2018-01-17T03:41:16.985Z,7.8
2018-01-17T03:42:19.407Z,7.8
2018-01-17T03:43:21.811Z,7.8
2018-01-17T03:44:24.220Z,7.8
2018-01-17T03:45:26.904Z,7.8
2018-01-17T03:46:29.307Z,7.8
2018-01-17T03:47:31.712Z,7.8
2018-01-17T03:48:34.134Z,7.8
2018-01-17T03:49:36.539Z,7.7
2018-01-17T03:50:38.950Z,7.7
2018-01-17T03:51:41.368Z,7.7
2018-01-17T03:52:43.774Z,7.7
2018-01-17T03:53:46.183Z,7.7
2018-01-17T03:54:48.591Z,7.7
2018-01-17T03:55:50.992Z,7.7
2018-01-17T03:56:53.398Z,7.7
2018-01-17T03:57:55.809Z,7.8
2018-01-17T03:58:58.211Z,7.7
2018-01-17T04:00:00.916Z,7.7
2018-01-17T04:01:03.620Z,7.7
2018-01-17T04:02:06.314Z,7.7
2018-01-17T04:03:08.718Z,7.7
2018-01-17T04:04:11.133Z,7.7
2018-01-17T04:05:13.541Z,7.7
2018-01-17T04:06:15.954Z,7.7
2018-01-17T04:07:18.359Z,7.7
2018-01-17T04:08:20.765Z,7.7
2018-01-17T04:09:23.170Z,7.7
2018-01-17T04:10:25.587Z,7.7
2018-01-17T04:11:27.992Z,7.8
2018-01-17T04:12:30.400Z,7.8
2018-01-17T04:13:32.818Z,7.8
2018-01-17T04:14:35.228Z,7.8
2018-01-17T04:15:37.626Z,7.8
2018-01-17T04:16:40.606Z,7.8
2018-01-17T04:17:43.019Z,7.8
2018-01-17T04:18:45.427Z,7.8
2018-01-17T04:19:47.843Z,7.8
2018-01-17T04:20:50.246Z,7.8
2018-01-17T04:21:52.655Z,7.8
2018-01-17T04:22:55.069Z,7.9
2018-01-17T04:23:57.752Z,7.8
2018-01-17T04:25:00.162Z,7.8
2018-01-17T04:26:02.568Z,7.8
2018-01-17T04:27:04.964Z,7.8
2018-01-17T04:28:07.373Z,7.8
2018-01-17T04:29:09.781Z,7.7
2018-01-17T04:30:12.191Z,7.7
2018-01-17T04:31:14.893Z,7.7
2018-01-17T04:32:17.578Z,7.7
2018-01-17T04:33:19.981Z,7.7
2018-01-17T04:34:22.406Z,7.7
2018-01-17T04:35:24.814Z,7.7
2018-01-17T04:36:27.216Z,7.7
2018-01-17T04:37:29.621Z,7.7
2018-01-17T04:38:32.035Z,7.7
2018-01-17T04:39:34.437Z,7.7
2018-01-17T04:40:36.840Z,7.7
2018-01-17T04:41:39.538Z,7.8
2018-01-17T04:42:41.947Z,7.7
2018-01-17T04:43:44.633Z,7.7
2018-01-17T04:44:47.331Z,7.7
2018-01-17T04:45:49.739Z,7.7
2018-01-17T04:46:52.147Z,7.7
2018-01-17T04:47:54.558Z,7.7
2018-01-17T04:48:56.969Z,7.7
2018-01-17T04:49:59.377Z,7.7
2018-01-17T04:51:01.791Z,7.7
2018-01-17T04:52:04.197Z,7.7
2018-01-17T04:53:06.603Z,7.6
2018-01-17T04:54:09.014Z,7.7
2018-01-17T04:55:11.420Z,7.7
2018-01-17T04:56:14.423Z,7.7
2018-01-17T04:57:17.378Z,7.7
2018-01-17T04:58:20.055Z,7.7
2018-01-17T04:59:22.753Z,7.8
2018-01-17T05:00:25.442Z,7.7
2018-01-17T05:01:27.849Z,7.8
2018-01-17T05:02:30.263Z,7.8
2018-01-17T05:03:32.664Z,7.7
2018-01-17T05:04:35.072Z,7.8
2018-01-17T05:05:37.491Z,7.8
2018-01-17T05:06:40.180Z,7.8
2018-01-17T05:07:42.580Z,7.8
2018-01-17T05:08:44.990Z,7.8
2018-01-17T05:09:47.392Z,7.8
2018-01-17T05:10:49.809Z,7.8
2018-01-17T05:11:52.220Z,7.8
2018-01-17T05:12:54.910Z,7.8
2018-01-17T05:13:57.317Z,7.8
2018-01-17T05:14:59.720Z,7.9
2018-01-17T05:16:02.417Z,7.9
2018-01-17T05:17:04.822Z,7.9
2018-01-17T05:18:07.232Z,8
2018-01-17T05:19:09.928Z,8
2018-01-17T05:20:12.330Z,8
2018-01-17T05:21:14.740Z,8
2018-01-17T05:22:17.157Z,8
2018-01-17T05:23:19.560Z,8
2018-01-17T05:24:21.973Z,8
2018-01-17T05:25:24.382Z,8
2018-01-17T05:26:26.784Z,8
2018-01-17T05:27:29.200Z,8
2018-01-17T05:28:31.609Z,8
2018-01-17T05:29:34.019Z,8
2018-01-17T05:30:36.435Z,8
2018-01-17T05:31:39.121Z,8
2018-01-17T05:32:41.865Z,8
2018-01-17T05:33:44.558Z,8
2018-01-17T05:34:46.964Z,8
2018-01-17T05:35:49.374Z,8
2018-01-17T05:36:52.102Z,8
2018-01-17T05:37:54.498Z,8
2018-01-17T05:38:56.905Z,7.9
2018-01-17T05:39:59.598Z,7.9
2018-01-17T05:41:02.013Z,7.9
2018-01-17T05:42:04.419Z,7.9
2018-01-17T05:43:07.111Z,7.9
2018-01-17T05:44:09.515Z,7.8
2018-01-17T05:45:11.924Z,7.8
2018-01-17T05:46:14.327Z,7.8
2018-01-17T05:47:16.740Z,7.8
2018-01-17T05:48:19.435Z,7.8
2018-01-17T05:49:21.844Z,7.8
2018-01-17T05:50:24.553Z,7.8
2018-01-17T05:51:26.962Z,7.8
2018-01-17T05:52:29.370Z,7.8
2018-01-17T05:53:31.776Z,7.8
2018-01-17T05:54:34.189Z,7.8
2018-01-17T05:55:36.593Z,7.8
2018-01-17T05:56:39.008Z,7.7
2018-01-17T05:57:41.413Z,7.7
2018-01-17T05:58:43.819Z,7.8
2018-01-17T05:59:46.231Z,7.8
2018-01-17T06:00:48.631Z,7.8
2018-01-17T06:01:51.045Z,7.7
2018-01-17T06:02:53.454Z,7.7
2018-01-17T06:03:55.851Z,7.7
2018-01-17T06:04:58.270Z,7.7
2018-01-17T06:06:00.958Z,7.6
2018-01-17T06:07:03.366Z,7.7
2018-01-17T06:08:05.775Z,7.7
2018-01-17T06:09:08.179Z,7.6
2018-01-17T06:10:10.587Z,7.7
2018-01-17T06:11:12.994Z,7.7
2018-01-17T06:12:15.401Z,7.7
2018-01-17T06:13:17.814Z,7.7
2018-01-17T06:14:20.205Z,7.7
2018-01-17T06:15:22.610Z,7.6
2018-01-17T06:16:25.023Z,7.6
2018-01-17T06:17:27.725Z,7.6
2018-01-17T06:18:30.131Z,7.6
2018-01-17T06:19:32.542Z,7.6
2018-01-17T06:20:34.942Z,7.5
2018-01-17T06:21:37.358Z,7.5
2018-01-17T06:22:40.046Z,7.6
2018-01-17T06:23:42.444Z,7.6
2018-01-17T06:24:44.862Z,7.5
2018-01-17T06:25:47.270Z,7.6
2018-01-17T06:26:49.681Z,7.6
2018-01-17T06:27:52.366Z,7.6
2018-01-17T06:28:54.767Z,7.6
2018-01-17T06:29:57.172Z,7.6
2018-01-17T06:30:59.584Z,7.6
2018-01-17T06:32:02.270Z,7.5
2018-01-17T06:33:04.673Z,7.5
2018-01-17T06:34:07.105Z,7.5
2018-01-17T06:35:09.492Z,7.6
2018-01-17T06:36:12.198Z,7.6
2018-01-17T06:37:14.897Z,7.6
2018-01-17T06:38:17.292Z,7.6
2018-01-17T06:39:19.702Z,7.6
2018-01-17T06:40:22.102Z,7.6
2018-01-17T06:41:24.507Z,7.6
2018-01-17T06:42:26.912Z,7.6
2018-01-17T06:43:29.323Z,7.6
2018-01-17T06:44:31.737Z,7.6
2018-01-17T06:45:34.142Z,7.5
2018-01-17T06:46:36.547Z,7.6
2018-01-17T06:47:39.283Z,7.6
2018-01-17T06:48:41.692Z,7.6
2018-01-17T06:49:44.094Z,7.6
2018-01-17T06:50:46.778Z,7.6
2018-01-17T06:51:49.186Z,7.6
2018-01-17T06:52:51.583Z,7.6
2018-01-17T06:53:53.997Z,7.6
2018-01-17T06:54:56.393Z,7.6
2018-01-17T06:55:58.800Z,7.6
2018-01-17T06:57:01.211Z,7.6
2018-01-17T06:58:03.622Z,7.6
2018-01-17T06:59:06.316Z,7.7
2018-01-17T07:00:09.003Z,7.7
2018-01-17T07:01:11.689Z,7.7
2018-01-17T07:02:14.113Z,7.7
2018-01-17T07:03:16.520Z,7.7
2018-01-17T07:04:18.925Z,7.7
2018-01-17T07:05:21.334Z,7.7
2018-01-17T07:06:23.745Z,7.7
2018-01-17T07:07:26.146Z,7.7
2018-01-17T07:08:28.554Z,7.7
2018-01-17T07:09:31.251Z,7.7
2018-01-17T07:10:33.660Z,7.7
2018-01-17T07:11:36.058Z,7.7
2018-01-17T07:12:38.471Z,7.7
2018-01-17T07:13:40.879Z,7.6
2018-01-17T07:14:43.578Z,7.7
2018-01-17T07:15:45.987Z,7.6
2018-01-17T07:16:48.390Z,7.6
2018-01-17T07:17:50.798Z,7.6
2018-01-17T07:18:53.507Z,7.6
2018-01-17T07:19:56.189Z,7.7
2018-01-17T07:20:58.594Z,7.6
2018-01-17T07:22:00.997Z,7.6
2018-01-17T07:23:03.408Z,7.6
2018-01-17T07:24:05.822Z,7.7
2018-01-17T07:25:08.226Z,7.7
2018-01-17T07:26:10.621Z,7.7
2018-01-17T07:27:13.035Z,7.7
2018-01-17T07:28:15.443Z,7.7
2018-01-17T07:29:17.845Z,7.7
2018-01-17T07:30:20.258Z,7.7
2018-01-17T07:31:22.954Z,7.7
2018-01-17T07:32:25.922Z,7.7
2018-01-17T07:33:28.342Z,7.7
2018-01-17T07:34:30.748Z,7.7
2018-01-17T07:35:33.159Z,7.7
2018-01-17T07:36:35.567Z,7.7
2018-01-17T07:37:37.985Z,7.7
2018-01-17T07:38:40.394Z,7.7
2018-01-17T07:39:42.802Z,7.7
2018-01-17T07:40:45.504Z,7.7
2018-01-17T07:41:47.910Z,7.7
2018-01-17T07:42:50.311Z,7.7
2018-01-17T07:43:52.720Z,7.7
2018-01-17T07:44:55.138Z,7.7
2018-01-17T07:45:57.539Z,7.7
2018-01-17T07:46:59.954Z,7.6
2018-01-17T07:48:02.356Z,7.6
2018-01-17T07:49:05.050Z,7.6
2018-01-17T07:50:07.459Z,7.6
2018-01-17T07:51:10.141Z,7.7
2018-01-17T07:52:12.541Z,7.7
2018-01-17T07:53:14.957Z,7.7
2018-01-17T07:54:17.362Z,7.7
2018-01-17T07:55:20.343Z,7.7
2018-01-17T07:56:22.753Z,7.7
2018-01-17T07:57:25.161Z,7.6
2018-01-17T07:58:27.570Z,7.6
2018-01-17T07:59:29.994Z,7.6
2018-01-17T08:00:32.390Z,7.6
2018-01-17T08:01:34.810Z,7.6
2018-01-17T08:02:37.211Z,7.6
2018-01-17T08:03:39.621Z,7.6
2018-01-17T08:04:42.307Z,7.6
2018-01-17T08:05:44.718Z,7.6
2018-01-17T08:06:47.115Z,7.6
2018-01-17T08:07:49.530Z,7.6
2018-01-17T08:08:51.942Z,7.6
2018-01-17T08:09:54.351Z,7.6
2018-01-17T08:10:56.755Z,7.6
2018-01-17T08:11:59.162Z,7.6
2018-01-17T08:13:01.573Z,7.6
2018-01-17T08:14:04.262Z,7.6
2018-01-17T08:15:06.674Z,7.6
2018-01-17T08:16:09.504Z,7.6
2018-01-17T08:17:11.978Z,7.6
2018-01-17T08:18:14.678Z,7.6
2018-01-17T08:19:17.088Z,7.7
2018-01-17T08:20:19.484Z,7.7
2018-01-17T08:21:21.907Z,7.7
2018-01-17T08:22:24.362Z,7.7
2018-01-17T08:23:26.794Z,7.7
2018-01-17T08:24:29.229Z,7.7
2018-01-17T08:25:31.652Z,7.7
2018-01-17T08:26:34.243Z,7.7
2018-01-17T08:27:36.974Z,7.7
2018-01-17T08:28:39.384Z,7.7
2018-01-17T08:29:42.087Z,7.8
2018-01-17T08:30:44.492Z,7.8
2018-01-17T08:31:46.898Z,7.8
2018-01-17T08:32:49.307Z,7.8
2018-01-17T08:33:51.721Z,7.9
2018-01-17T08:34:54.119Z,7.9
2018-01-17T08:35:56.526Z,7.9
2018-01-17T08:36:58.935Z,7.9
2018-01-17T08:38:01.339Z,7.9
2018-01-17T08:39:04.036Z,7.9
2018-01-17T08:40:06.429Z,7.9
2018-01-17T08:41:09.129Z,7.9
2018-01-17T08:42:11.536Z,7.9
2018-01-17T08:43:13.945Z,7.9
2018-01-17T08:44:16.349Z,7.9
2018-01-17T08:45:19.065Z,7.9
2018-01-17T08:46:21.477Z,7.9
2018-01-17T08:47:23.889Z,7.9
2018-01-17T08:48:26.293Z,7.9
2018-01-17T08:49:28.698Z,7.9
2018-01-17T08:50:31.107Z,7.9
2018-01-17T08:51:33.528Z,7.9
2018-01-17T08:52:35.924Z,7.9
2018-01-17T08:53:38.343Z,8
2018-01-17T08:54:40.754Z,8
2018-01-17T08:55:43.166Z,8
2018-01-17T08:56:45.577Z,8.1
2018-01-17T08:57:47.988Z,8
2018-01-17T08:58:50.388Z,8.1
2018-01-17T08:59:52.811Z,8.1
2018-01-17T09:00:55.215Z,8.1
2018-01-17T09:01:57.626Z,8.1
2018-01-17T09:03:00.041Z,8.1
2018-01-17T09:04:02.444Z,8.1
2018-01-17T09:05:04.852Z,8.1
2018-01-17T09:06:07.570Z,8.1
2018-01-17T09:07:09.984Z,8.1
2018-01-17T09:08:12.380Z,8.1
2018-01-17T09:09:14.792Z,8.1
2018-01-17T09:10:17.202Z,8
2018-01-17T09:11:19.611Z,8
2018-01-17T09:12:22.296Z,8
2018-01-17T09:13:24.707Z,8
2018-01-17T09:14:27.109Z,8
2018-01-17T09:15:29.531Z,8
2018-01-17T09:16:31.941Z,8
2018-01-17T09:17:34.346Z,8
2018-01-17T09:18:36.753Z,8
2018-01-17T09:19:39.443Z,8
2018-01-17T09:20:41.854Z,8
2018-01-17T09:21:44.263Z,7.9
2018-01-17T09:22:46.664Z,8
2018-01-17T09:23:49.073Z,7.9
2018-01-17T09:24:51.490Z,8
2018-01-17T09:25:54.469Z,8
2018-01-17T09:26:56.869Z,8
2018-01-17T09:27:59.284Z,8.1
2018-01-17T09:29:01.695Z,8.1
2018-01-17T09:30:04.104Z,8.1
2018-01-17T09:31:06.520Z,8.1
2018-01-17T09:32:08.914Z,8.1
2018-01-17T09:33:11.322Z,8.1
2018-01-17T09:34:13.729Z,8
2018-01-17T09:35:16.133Z,8
2018-01-17T09:36:18.536Z,8
2018-01-17T09:37:20.955Z,8.1
2018-01-17T09:38:23.649Z,8
2018-01-17T09:39:26.049Z,8.1
2018-01-17T09:40:28.731Z,8
2018-01-17T09:41:31.148Z,8
2018-01-17T09:42:33.559Z,8
2018-01-17T09:43:35.968Z,8
2018-01-17T09:44:38.380Z,8
2018-01-17T09:45:40.781Z,8
2018-01-17T09:46:43.199Z,8
2018-01-17T09:47:45.614Z,8
2018-01-17T09:48:48.017Z,8
2018-01-17T09:49:50.424Z,8
2018-01-17T09:50:52.843Z,8
2018-01-17T09:51:55.250Z,8
2018-01-17T09:52:57.934Z,8
2018-01-17T09:54:00.349Z,7.9
2018-01-17T09:55:02.759Z,8
2018-01-17T09:56:05.174Z,8
2018-01-17T09:57:07.865Z,8
2018-01-17T09:58:10.262Z,8
2018-01-17T09:59:12.674Z,7.9
2018-01-17T10:00:15.086Z,7.9
2018-01-17T10:01:17.493Z,7.9
2018-01-17T10:02:19.899Z,7.9
2018-01-17T10:03:22.592Z,7.8
2018-01-17T10:04:25.850Z,7.8
2018-01-17T10:05:28.270Z,7.8
2018-01-17T10:06:30.963Z,7.9
2018-01-17T10:07:33.368Z,7.9
2018-01-17T10:08:35.779Z,7.9
2018-01-17T10:09:38.471Z,7.9
2018-01-17T10:10:40.874Z,7.9
2018-01-17T10:11:43.280Z,7.9
2018-01-17T10:12:45.693Z,7.9
2018-01-17T10:13:48.091Z,7.9
2018-01-17T10:14:50.509Z,7.9
2018-01-17T10:15:52.915Z,7.9
2018-01-17T10:16:55.325Z,7.9
2018-01-17T10:17:58.016Z,7.9
2018-01-17T10:19:00.422Z,8
2018-01-17T10:20:02.826Z,7.9
2018-01-17T10:21:05.243Z,7.9
2018-01-17T10:22:07.929Z,7.9
2018-01-17T10:23:10.340Z,7.9
2018-01-17T10:24:12.756Z,7.9
2018-01-17T10:25:15.741Z,7.8
2018-01-17T10:26:18.148Z,7.8
2018-01-17T10:27:20.550Z,7.8
2018-01-17T10:28:23.246Z,7.9
2018-01-17T10:29:25.660Z,7.9
2018-01-17T10:30:28.061Z,7.9
2018-01-17T10:31:30.467Z,7.9
2018-01-17T10:32:32.866Z,7.9
2018-01-17T10:33:35.283Z,7.8
2018-01-17T10:34:37.695Z,7.8
2018-01-17T10:35:40.109Z,7.8
2018-01-17T10:36:42.558Z,7.8
2018-01-17T10:37:44.917Z,7.8
2018-01-17T10:38:47.337Z,7.8
2018-01-17T10:39:49.748Z,7.8
2018-01-17T10:40:52.158Z,7.8
2018-01-17T10:41:55.126Z,7.8
2018-01-17T10:42:57.530Z,7.8
2018-01-17T10:44:00.226Z,7.9
2018-01-17T10:45:02.641Z,7.9
2018-01-17T10:46:05.041Z,7.9
2018-01-17T10:47:07.726Z,7.9
2018-01-17T10:48:10.141Z,7.9
2018-01-17T10:49:12.824Z,7.9
2018-01-17T10:50:15.231Z,7.9
2018-01-17T10:51:17.645Z,7.9
2018-01-17T10:52:20.052Z,7.9
2018-01-17T10:53:22.459Z,7.9
2018-01-17T10:54:24.865Z,7.9
2018-01-17T10:55:27.545Z,7.8
2018-01-17T10:56:29.960Z,7.8
2018-01-17T10:57:32.362Z,7.8
2018-01-17T10:58:34.762Z,7.8
2018-01-17T10:59:37.466Z,7.8
2018-01-17T11:00:39.879Z,7.8
2018-01-17T11:01:42.289Z,7.8
2018-01-17T11:02:44.704Z,7.8
2018-01-17T11:03:47.107Z,7.7
2018-01-17T11:04:49.513Z,7.7
2018-01-17T11:05:51.922Z,7.7
2018-01-17T11:06:54.332Z,7.7
2018-01-17T11:07:56.739Z,7.7
2018-01-17T11:08:59.153Z,7.7
2018-01-17T11:10:01.561Z,7.7
2018-01-17T11:11:04.289Z,7.7
2018-01-17T11:12:06.686Z,7.6
2018-01-17T11:13:09.106Z,7.6
2018-01-17T11:14:11.510Z,7.6
2018-01-17T11:15:13.917Z,7.6
2018-01-17T11:16:16.328Z,7.5
2018-01-17T11:17:18.736Z,7.5
2018-01-17T11:18:21.143Z,7.5
2018-01-17T11:19:23.556Z,7.5
2018-01-17T11:20:26.235Z,7.5
2018-01-17T11:21:28.653Z,7.5
2018-01-17T11:22:31.347Z,7.6
2018-01-17T11:23:34.034Z,7.6
2018-01-17T11:24:36.449Z,7.6
2018-01-17T11:25:38.845Z,7.6
2018-01-17T11:26:41.252Z,7.6
2018-01-17T11:27:43.655Z,7.5
2018-01-17T11:28:46.053Z,7.5
2018-01-17T11:29:48.461Z,7.6
2018-01-17T11:30:50.885Z,7.6
2018-01-17T11:31:53.288Z,7.6
2018-01-17T11:32:55.701Z,7.6
2018-01-17T11:33:58.103Z,7.6
2018-01-17T11:35:00.823Z,7.6
2018-01-17T11:36:03.223Z,7.6
2018-01-17T11:37:05.635Z,7.6
2018-01-17T11:38:08.046Z,7.7
2018-01-17T11:39:10.754Z,7.7
2018-01-17T11:40:13.160Z,7.7
2018-01-17T11:41:15.569Z,7.7
2018-01-17T11:42:17.971Z,7.7
2018-01-17T11:43:20.381Z,7.7
2018-01-17T11:44:22.782Z,7.7
2018-01-17T11:45:25.192Z,7.7
2018-01-17T11:46:27.595Z,7.7
2018-01-17T11:47:30.009Z,7.7
2018-01-17T11:48:32.698Z,7.7
2018-01-17T11:49:35.663Z,7.8
2018-01-17T11:50:38.065Z,7.9
2018-01-17T11:51:40.472Z,7.9
2018-01-17T11:52:42.877Z,7.9
2018-01-17T11:53:45.293Z,7.9
2018-01-17T11:54:47.690Z,7.9
2018-01-17T11:55:50.196Z,7.9
2018-01-17T11:56:52.519Z,7.8
2018-01-17T11:57:54.920Z,7.8
2018-01-17T11:58:57.331Z,7.8
2018-01-17T11:59:59.739Z,7.8
2018-01-17T12:01:02.207Z,7.9
2018-01-17T12:02:04.572Z,7.8
2018-01-17T12:03:07.266Z,7.8
2018-01-17T12:04:09.661Z,7.8
2018-01-17T12:05:12.074Z,7.8
2018-01-17T12:06:14.479Z,7.8
2018-01-17T12:07:16.883Z,7.8
2018-01-17T12:08:19.576Z,7.8
2018-01-17T12:09:22.294Z,7.8
2018-01-17T12:10:24.707Z,7.7
2018-01-17T12:11:27.106Z,7.7
2018-01-17T12:12:29.515Z,7.7
2018-01-17T12:13:32.206Z,7.7
2018-01-17T12:14:34.616Z,7.7
2018-01-17T12:15:37.022Z,7.7
2018-01-17T12:16:39.422Z,7.8
2018-01-17T12:17:41.827Z,7.8
2018-01-17T12:18:44.253Z,7.8
2018-01-17T12:19:46.655Z,7.8
2018-01-17T12:20:49.342Z,7.8
2018-01-17T12:21:51.741Z,7.8
2018-01-17T12:22:54.143Z,7.8
2018-01-17T12:23:57.122Z,7.8
2018-01-17T12:24:59.806Z,7.8
2018-01-17T12:26:02.210Z,7.8
2018-01-17T12:27:04.623Z,7.8
2018-01-17T12:28:07.038Z,7.8
2018-01-17T12:29:09.442Z,7.8
2018-01-17T12:30:11.862Z,7.8
2018-01-17T12:31:14.267Z,7.8
2018-01-17T12:32:16.959Z,7.8
2018-01-17T12:33:19.379Z,7.8
2018-01-17T12:34:22.466Z,7.9
2018-01-17T12:35:24.862Z,7.9
2018-01-17T12:36:27.543Z,7.9
2018-01-17T12:37:30.244Z,7.9
2018-01-17T12:38:32.664Z,7.9
2018-01-17T12:39:35.069Z,7.9
2018-01-17T12:40:37.472Z,7.9
2018-01-17T12:41:39.885Z,7.9
2018-01-17T12:42:43.031Z,7.9
2018-01-17T12:43:45.712Z,7.9
2018-01-17T12:44:48.120Z,7.9
2018-01-17T12:45:50.802Z,7.9
2018-01-17T12:46:53.223Z,8
2018-01-17T12:47:55.630Z,8
2018-01-17T12:48:58.325Z,8
2018-01-17T12:50:00.724Z,8
2018-01-17T12:51:03.137Z,8
2018-01-17T12:52:05.549Z,8
2018-01-17T12:53:08.531Z,8
2018-01-17T12:54:10.967Z,8.1
2018-01-17T12:55:13.624Z,8.1
2018-01-17T12:56:16.040Z,8.1
2018-01-17T12:57:18.453Z,8.1
2018-01-17T12:58:20.859Z,8.1
2018-01-17T12:59:23.262Z,8.2
2018-01-17T13:00:25.667Z,8.2
2018-01-17T13:01:28.095Z,8.2
2018-01-17T13:02:30.503Z,8.3
2018-01-17T13:03:33.213Z,8.3
2018-01-17T13:04:35.625Z,8.3
2018-01-17T13:05:38.034Z,8.3
2018-01-17T13:06:40.447Z,8.3
2018-01-17T13:07:42.906Z,8.3
2018-01-17T13:08:45.336Z,8.3
2018-01-17T13:09:47.745Z,8.3
2018-01-17T13:10:50.138Z,8.4
2018-01-17T13:11:52.553Z,8.4
2018-01-17T13:12:54.958Z,8.4
2018-01-17T13:13:57.372Z,8.4
2018-01-17T13:14:59.791Z,8.4
2018-01-17T13:16:02.199Z,8.4
2018-01-17T13:17:04.646Z,8.4
2018-01-17T13:18:07.082Z,8.4
2018-01-17T13:19:09.508Z,8.4
2018-01-17T13:20:11.916Z,8.4
2018-01-17T13:21:14.329Z,8.3
2018-01-17T13:22:17.028Z,8.4
2018-01-17T13:23:19.449Z,8.3
2018-01-17T13:24:21.860Z,8.3
2018-01-17T13:25:24.260Z,8.3
2018-01-17T13:26:26.673Z,8.3
2018-01-17T13:27:29.078Z,8.3
2018-01-17T13:28:31.486Z,8.3
2018-01-17T13:29:33.888Z,8.3
2018-01-17T13:30:36.290Z,8.3
2018-01-17T13:31:38.698Z,8.3
2018-01-17T13:32:41.124Z,8.4
2018-01-17T13:33:43.530Z,8.3
2018-01-17T13:34:45.945Z,8.3
2018-01-17T13:35:48.338Z,8.3
2018-01-17T13:36:50.759Z,8.4
2018-01-17T13:37:53.169Z,8.4
2018-01-17T13:38:55.574Z,8.4
2018-01-17T13:39:57.984Z,8.5
2018-01-17T13:41:00.390Z,8.5
2018-01-17T13:42:02.812Z,8.5
2018-01-17T13:43:05.222Z,8.5
2018-01-17T13:44:07.627Z,8.4
2018-01-17T13:45:10.036Z,8.5
2018-01-17T13:46:12.456Z,8.5
2018-01-17T13:47:14.860Z,8.5
2018-01-17T13:48:17.276Z,8.5
2018-01-17T13:49:19.683Z,8.4
2018-01-17T13:50:22.087Z,8.4
2018-01-17T13:51:24.510Z,8.4
2018-01-17T13:52:27.210Z,8.4
2018-01-17T13:53:29.619Z,8.4
2018-01-17T13:54:32.028Z,8.4
2018-01-17T13:55:34.439Z,8.4
2018-01-17T13:56:36.856Z,8.5
2018-01-17T13:57:39.268Z,8.4
2018-01-17T13:58:41.667Z,8.4
2018-01-17T13:59:44.078Z,8.4
2018-01-17T14:00:46.489Z,8.4
2018-01-17T14:01:49.474Z,8.4
2018-01-17T14:02:51.887Z,8.4
2018-01-17T14:03:54.572Z,8.4
2018-01-17T14:04:57.264Z,8.5
2018-01-17T14:05:59.948Z,8.4
2018-01-17T14:07:02.364Z,8.5
2018-01-17T14:08:04.774Z,8.4
2018-01-17T14:09:07.194Z,8.5
2018-01-17T14:10:09.595Z,8.5
2018-01-17T14:11:12.006Z,8.5
2018-01-17T14:12:14.413Z,8.5
2018-01-17T14:13:16.822Z,8.5
2018-01-17T14:14:19.226Z,8.5
2018-01-17T14:15:21.637Z,8.5
2018-01-17T14:16:24.040Z,8.5
2018-01-17T14:17:26.750Z,8.5
2018-01-17T14:18:29.157Z,8.4
2018-01-17T14:19:31.575Z,8.4
2018-01-17T14:20:33.978Z,8.4
2018-01-17T14:21:36.392Z,8.4
2018-01-17T14:22:38.798Z,8.4
2018-01-17T14:23:41.210Z,8.4
2018-01-17T14:24:43.614Z,8.4
2018-01-17T14:25:46.082Z,8.4